Time;durP1;ratioP1;P1;durP2;ratioP2;P2;SDS_P1;SDS_P2;PMS_P1;PMS_P2;Temp;Humidity;BMP_temperature;BMP_pressure;BME280_temperature;BME280_humidity;BME280_pressure;Samples;Min_cycle;Max_cycle;Signal;HPM_P1;HPM_P2
2021/12/27 00:00:12;;;;;;;33.83;15.70;;;0.70;99.90;;;;;;5011770;28;20606;-62
2021/12/27 00:02:38;;;;;;;28.92;16.33;;;0.70;99.90;;;;;;5011337;28;20042;-62
2021/12/27 00:05:05;;;;;;;30.20;16.98;;;0.80;99.90;;;;;;5011314;28;20041;-64
2021/12/27 00:07:32;;;;;;;29.45;15.63;;;0.80;99.90;;;;;;4993923;28;20046;-63
2021/12/27 00:09:57;;;;;;;34.70;16.95;;;0.80;99.90;;;;;;5011588;28;20042;-63
2021/12/27 00:12:23;;;;;;;32.50;17.08;;;0.70;99.90;;;;;;4993890;28;20048;-66
2021/12/27 00:14:48;;;;;;;35.65;17.08;;;0.80;99.90;;;;;;5011322;28;20130;-63
2021/12/27 00:17:14;;;;;;;32.20;17.60;;;0.80;99.90;;;;;;4993151;28;20073;-63
2021/12/27 00:19:40;;;;;;;31.17;16.58;;;0.80;99.90;;;;;;4993544;28;20038;-62
2021/12/27 00:22:05;;;;;;;33.20;16.45;;;0.80;99.90;;;;;;4993790;28;20054;-63
2021/12/27 00:24:31;;;;;;;37.63;18.15;;;0.80;99.90;;;;;;4993458;28;20038;-63
2021/12/27 00:26:56;;;;;;;29.23;16.17;;;0.80;99.90;;;;;;5011122;28;20049;-63
2021/12/27 00:29:22;;;;;;;37.05;17.40;;;0.80;99.90;;;;;;5011130;28;20096;-64
2021/12/27 00:31:47;;;;;;;32.72;16.73;;;0.90;99.90;;;;;;5010924;28;20049;-63
2021/12/27 00:34:13;;;;;;;33.03;17.52;;;0.90;99.90;;;;;;4993164;28;20042;-63
2021/12/27 00:36:39;;;;;;;31.45;16.35;;;0.90;99.90;;;;;;5010825;28;20038;-63
2021/12/27 00:39:05;;;;;;;31.25;17.50;;;0.90;99.90;;;;;;5010685;28;20421;-63
2021/12/27 00:41:31;;;;;;;35.25;17.42;;;0.90;99.90;;;;;;5010911;28;20123;-64
2021/12/27 00:43:56;;;;;;;37.22;17.30;;;0.90;99.90;;;;;;5010023;28;20037;-63
2021/12/27 00:46:22;;;;;;;34.15;17.80;;;0.90;99.90;;;;;;4993475;28;20046;-63
2021/12/27 00:48:47;;;;;;;34.25;17.23;;;0.90;99.90;;;;;;4997194;28;20045;-63
2021/12/27 00:51:13;;;;;;;32.50;17.58;;;1.00;99.90;;;;;;5010471;28;20112;-63
2021/12/27 00:53:39;;;;;;;32.75;16.75;;;1.00;99.90;;;;;;4992704;28;20034;-64
2021/12/27 00:56:04;;;;;;;32.58;16.35;;;0.90;99.90;;;;;;5010818;28;20044;-63
2021/12/27 00:58:30;;;;;;;33.78;17.73;;;1.00;99.90;;;;;;4993135;28;20045;-63
2021/12/27 01:00:56;;;;;;;31.65;16.52;;;1.00;99.90;;;;;;5010546;28;20564;-62
2021/12/27 01:03:21;;;;;;;34.22;17.73;;;1.00;99.90;;;;;;5010148;28;20036;-63
2021/12/27 01:05:47;;;;;;;36.40;17.50;;;1.00;99.90;;;;;;5010422;28;20104;-64
2021/12/27 01:08:13;;;;;;;36.10;17.95;;;1.00;99.90;;;;;;5010240;28;20731;-63
2021/12/27 01:13:18;;;;;;;35.30;17.83;;;1.00;99.90;;;;;;5010123;28;20542;-63
2021/12/27 01:16:10;;;;;;;35.28;17.98;;;1.00;99.90;;;;;;5010397;28;20478;-63
2021/12/27 01:18:55;;;;;;;;;;;1.00;99.90;;;;;;5010465;28;20103;-63
2021/12/27 01:21:23;;;;;;;37.58;17.92;;;1.00;99.90;;;;;;4991528;28;19979;-62
2021/12/27 01:23:50;;;;;;;32.13;16.95;;;1.00;99.90;;;;;;5024222;28;20049;-63
2021/12/27 01:26:16;;;;;;;34.78;17.25;;;1.00;99.90;;;;;;5009576;28;20072;-64
2021/12/27 01:28:43;;;;;;;35.67;17.92;;;1.00;99.90;;;;;;5009000;28;20066;-63
2021/12/27 01:31:09;;;;;;;32.35;16.98;;;1.00;99.90;;;;;;5009249;28;20409;-63
2021/12/27 01:33:34;;;;;;;31.55;17.40;;;1.00;99.90;;;;;;5009195;28;20045;-64
2021/12/27 01:36:02;;;;;;;35.30;19.05;;;1.00;99.90;;;;;;5009285;28;20034;-63
2021/12/27 01:38:28;;;;;;;33.92;18.60;;;1.00;99.90;;;;;;5009332;28;20225;-63
2021/12/27 01:40:55;;;;;;;34.83;18.50;;;1.00;99.90;;;;;;5009067;28;20067;-63
2021/12/27 01:43:25;;;;;;;38.63;19.48;;;1.00;99.90;;;;;;5024027;28;20053;-63
2021/12/27 01:45:50;;;;;;;40.10;18.98;;;1.00;99.90;;;;;;5009195;28;20469;-63
2021/12/27 01:48:20;;;;;;;37.22;18.33;;;1.00;99.90;;;;;;4991602;28;20104;-63
2021/12/27 01:50:46;;;;;;;32.10;18.25;;;1.00;99.90;;;;;;5024299;28;20069;-63
2021/12/27 01:53:13;;;;;;;38.05;18.80;;;1.00;99.90;;;;;;5008772;28;20041;-64
2021/12/27 01:55:39;;;;;;;34.63;18.77;;;1.00;99.90;;;;;;5011128;28;20112;-62
2021/12/27 01:58:06;;;;;;;34.83;17.88;;;1.00;99.90;;;;;;5041660;23;20038;-64
2021/12/27 02:00:34;;;;;;;34.75;18.42;;;1.00;99.90;;;;;;5016665;28;20041;-64
2021/12/27 02:02:59;;;;;;;34.95;17.92;;;1.00;99.90;;;;;;5033982;28;20041;-64
2021/12/27 02:05:25;;;;;;;37.22;18.48;;;1.00;99.90;;;;;;5033996;28;20037;-64
2021/12/27 02:07:50;;;;;;;40.35;20.25;;;1.00;99.90;;;;;;5034359;28;20118;-63
2021/12/27 02:10:16;;;;;;;36.60;19.02;;;1.10;99.90;;;;;;5032997;28;20041;-64
2021/12/27 02:12:44;;;;;;;36.65;19.35;;;1.10;99.90;;;;;;5033997;28;20041;-64
2021/12/27 02:15:11;;;;;;;39.05;18.88;;;1.10;99.90;;;;;;5034426;28;20037;-64
2021/12/27 02:17:38;;;;;;;39.05;19.88;;;1.10;99.90;;;;;;5032469;28;20049;-64
2021/12/27 02:20:17;;;;;;;36.05;19.08;;;1.00;99.90;;;;;;5033067;28;20179;-64
2021/12/27 02:22:44;;;;;;;39.35;19.17;;;1.10;99.90;;;;;;5033622;28;20044;-63
2021/12/27 02:25:11;;;;;;;37.67;19.27;;;1.10;99.90;;;;;;5034287;28;20116;-64
2021/12/27 02:27:37;;;;;;;37.10;18.70;;;1.00;99.90;;;;;;5033848;28;20143;-63
2021/12/27 02:30:05;;;;;;;36.45;18.98;;;1.10;99.90;;;;;;5032788;28;20045;-62
2021/12/27 02:32:31;;;;;;;37.65;19.88;;;1.10;99.90;;;;;;5033870;28;20128;-63
2021/12/27 02:34:56;;;;;;;34.70;19.50;;;1.20;99.90;;;;;;5033916;28;20069;-64
2021/12/27 02:37:22;;;;;;;41.75;18.73;;;1.20;99.90;;;;;;5033494;28;20045;-64
2021/12/27 02:39:48;;;;;;;34.90;19.02;;;1.10;99.90;;;;;;5034043;28;20048;-63
2021/12/27 02:42:18;;;;;;;34.58;18.85;;;1.20;99.90;;;;;;5033905;28;20041;-63
2021/12/27 02:44:44;;;;;;;37.37;19.07;;;1.20;99.90;;;;;;5033704;28;20602;-64
2021/12/27 02:47:10;;;;;;;39.22;19.38;;;1.20;99.90;;;;;;5033460;28;20045;-63
2021/12/27 02:49:35;;;;;;;38.83;20.35;;;1.20;99.90;;;;;;5032242;28;20041;-64
2021/12/27 02:52:01;;;;;;;36.47;18.98;;;1.20;99.90;;;;;;5033467;28;20044;-64
2021/12/27 02:54:27;;;;;;;36.33;19.55;;;1.20;99.90;;;;;;5033045;28;20040;-64
2021/12/27 02:56:52;;;;;;;36.22;19.20;;;1.20;99.90;;;;;;5033387;28;20042;-64
2021/12/27 02:59:18;;;;;;;37.20;19.60;;;1.20;99.90;;;;;;5032201;28;20116;-64
2021/12/27 03:01:44;;;;;;;37.05;19.63;;;1.20;99.90;;;;;;5033372;28;20048;-63
2021/12/27 03:04:09;;;;;;;40.70;20.20;;;1.20;99.90;;;;;;5033242;28;20391;-64
2021/12/27 03:06:35;;;;;;;37.97;18.98;;;1.20;99.90;;;;;;5032612;28;20033;-64
2021/12/27 03:09:00;;;;;;;38.53;19.65;;;1.20;99.90;;;;;;5032966;28;20115;-64
2021/12/27 03:11:26;;;;;;;35.78;19.00;;;1.20;99.90;;;;;;5032751;28;20037;-63
2021/12/27 03:13:52;;;;;;;36.67;19.05;;;1.20;99.90;;;;;;5031097;28;20041;-64
2021/12/27 03:16:20;;;;;;;34.40;18.88;;;1.20;99.90;;;;;;5032519;28;20117;-64
2021/12/27 03:18:51;;;;;;;39.28;19.60;;;1.20;99.90;;;;;;5032316;28;20033;-64
2021/12/27 03:21:18;;;;;;;38.10;19.08;;;1.20;99.90;;;;;;5032800;28;20045;-64
2021/12/27 03:23:45;;;;;;;40.67;20.02;;;1.20;99.90;;;;;;5032019;28;20467;-64
2021/12/27 03:26:11;;;;;;;40.58;20.35;;;1.20;99.90;;;;;;5032309;28;20045;-64
2021/12/27 03:28:38;;;;;;;39.10;20.02;;;1.30;99.90;;;;;;5031976;28;20045;-63
2021/12/27 03:31:04;;;;;;;39.45;20.30;;;1.30;99.90;;;;;;5032150;28;20374;-64
2021/12/27 03:33:30;;;;;;;42.30;20.30;;;1.30;99.90;;;;;;5030322;28;20099;-64
2021/12/27 03:36:02;;;;;;;42.85;20.40;;;1.20;99.90;;;;;;5031693;28;20041;-64
2021/12/27 03:38:35;;;;;;;38.20;20.23;;;1.20;99.90;;;;;;5031934;28;20046;-64
2021/12/27 03:41:03;;;;;;;36.42;19.23;;;1.20;99.90;;;;;;5028991;28;20045;-64
2021/12/27 03:43:28;;;;;;;36.33;19.33;;;1.30;99.90;;;;;;5031443;28;20417;-64
2021/12/27 03:45:54;;;;;;;39.28;20.30;;;1.30;99.90;;;;;;5024516;28;20045;-64
2021/12/27 03:48:20;;;;;;;36.58;19.67;;;1.30;99.90;;;;;;5011461;28;20041;-64
2021/12/27 03:50:45;;;;;;;39.40;20.23;;;1.30;99.90;;;;;;5016188;28;20034;-64
2021/12/27 03:53:11;;;;;;;38.03;20.27;;;1.30;99.90;;;;;;5031509;28;20092;-63
2021/12/27 03:55:37;;;;;;;38.88;19.83;;;1.30;99.90;;;;;;5026879;28;20041;-64
2021/12/27 03:58:09;;;;;;;41.28;19.88;;;1.30;99.90;;;;;;5011509;28;20336;-64
2021/12/27 04:03:24;;;;;;;39.42;19.60;;;1.30;99.90;;;;;;5011652;28;20108;-64
2021/12/27 04:05:50;;;;;;;37.30;19.65;;;1.30;99.90;;;;;;5011594;28;20046;-64
2021/12/27 04:08:18;;;;;;;38.08;21.20;;;1.30;99.90;;;;;;5011609;28;20049;-64
2021/12/27 04:10:44;;;;;;;39.92;20.23;;;1.30;99.90;;;;;;5025640;28;20041;-64
2021/12/27 04:13:11;;;;;;;39.80;19.23;;;1.30;99.90;;;;;;5031630;28;20044;-63
2021/12/27 04:15:37;;;;;;;34.92;19.10;;;1.30;99.90;;;;;;5031998;28;20394;-63
2021/12/27 04:18:04;;;;;;;37.33;19.92;;;1.40;99.90;;;;;;5024561;28;20041;-64
2021/12/27 04:20:30;;;;;;;41.78;20.65;;;1.40;99.90;;;;;;5012350;28;20041;-63
2021/12/27 04:22:55;;;;;;;36.10;19.70;;;1.40;99.90;;;;;;5012040;28;20597;-63
2021/12/27 04:25:21;;;;;;;35.88;20.02;;;1.40;99.90;;;;;;5010922;28;20132;-63
2021/12/27 04:27:48;;;;;;;39.72;20.88;;;1.40;99.90;;;;;;5026619;28;20037;-63
2021/12/27 04:30:15;;;;;;;39.85;20.60;;;1.40;99.90;;;;;;5013115;28;20502;-62
2021/12/27 04:32:41;;;;;;;35.70;19.38;;;1.40;99.90;;;;;;5011930;28;20517;-64
2021/12/27 04:35:07;;;;;;;36.92;20.20;;;1.40;99.90;;;;;;5009984;28;20038;-63
2021/12/27 04:37:33;;;;;;;41.55;20.20;;;1.40;99.90;;;;;;5011160;28;20188;-63
2021/12/27 04:39:59;;;;;;;39.80;20.85;;;1.30;99.90;;;;;;5010086;28;20614;-64
2021/12/27 04:42:27;;;;;;;38.58;21.00;;;1.40;99.90;;;;;;5011230;28;20139;-64
2021/12/27 04:44:53;;;;;;;42.15;21.23;;;1.40;99.90;;;;;;5010125;28;20042;-63
2021/12/27 04:47:18;;;;;;;41.25;21.42;;;1.40;99.90;;;;;;5011347;28;20041;-63
2021/12/27 04:49:44;;;;;;;40.78;21.13;;;1.40;99.90;;;;;;5009987;28;20058;-64
2021/12/27 04:52:11;;;;;;;44.13;21.00;;;1.40;99.90;;;;;;5011357;28;20127;-63
2021/12/27 04:54:37;;;;;;;39.85;20.80;;;1.40;99.90;;;;;;5010215;28;20037;-62
2021/12/27 04:57:03;;;;;;;38.72;20.52;;;1.40;99.90;;;;;;5011126;28;20645;-63
2021/12/27 04:59:29;;;;;;;41.30;21.45;;;1.40;99.90;;;;;;5010993;28;20096;-64
2021/12/27 05:01:55;;;;;;;38.65;19.85;;;1.40;99.90;;;;;;5011077;28;20069;-62
2021/12/27 05:04:20;;;;;;;40.65;21.10;;;1.40;99.90;;;;;;5011135;28;20073;-63
2021/12/27 05:06:46;;;;;;;41.47;20.45;;;1.40;99.90;;;;;;5011000;28;20100;-63
2021/12/27 05:09:12;;;;;;;41.10;21.10;;;1.40;99.90;;;;;;5010722;28;20049;-63
2021/12/27 05:11:37;;;;;;;39.97;21.10;;;1.40;99.90;;;;;;5010897;28;20465;-63
2021/12/27 05:14:03;;;;;;;41.58;20.60;;;1.40;99.90;;;;;;5010876;28;20042;-63
2021/12/27 05:16:29;;;;;;;40.85;21.17;;;1.40;99.90;;;;;;5011049;28;20049;-64
2021/12/27 05:18:54;;;;;;;40.65;21.10;;;1.40;99.90;;;;;;5010883;28;20387;-63
2021/12/27 05:21:20;;;;;;;40.08;20.90;;;1.40;99.90;;;;;;5011033;28;20186;-63
2021/12/27 05:23:46;;;;;;;37.00;20.45;;;1.40;99.90;;;;;;5010844;28;20038;-64
2021/12/27 05:26:12;;;;;;;40.50;20.85;;;1.40;99.90;;;;;;5010630;28;20109;-63
2021/12/27 05:28:37;;;;;;;40.17;20.58;;;1.40;99.90;;;;;;5010119;28;20084;-63
2021/12/27 05:31:03;;;;;;;39.92;21.80;;;1.40;99.90;;;;;;5010554;28;20053;-64
2021/12/27 05:33:28;;;;;;;43.88;21.15;;;1.40;99.90;;;;;;5010710;28;20037;-63
2021/12/27 05:35:54;;;;;;;48.17;22.27;;;1.40;99.90;;;;;;5010753;28;20034;-63
2021/12/27 05:38:19;;;;;;;42.92;21.20;;;1.40;99.90;;;;;;5010611;28;20093;-63
2021/12/27 05:40:45;;;;;;;48.15;22.55;;;1.40;99.90;;;;;;5010248;28;20103;-63
2021/12/27 05:43:11;;;;;;;45.85;22.38;;;1.40;99.90;;;;;;5010378;28;20061;-63
2021/12/27 05:45:37;;;;;;;49.10;21.52;;;1.40;99.90;;;;;;5009364;28;20037;-63
2021/12/27 05:48:04;;;;;;;43.47;20.98;;;1.40;99.90;;;;;;5010427;28;20038;-63
2021/12/27 05:50:30;;;;;;;48.75;22.50;;;1.40;99.90;;;;;;5010559;28;20042;-63
2021/12/27 05:52:55;;;;;;;44.78;21.55;;;1.40;99.90;;;;;;5010383;28;20041;-63
2021/12/27 05:55:22;;;;;;;47.03;22.08;;;1.40;99.90;;;;;;5010649;28;20037;-64
2021/12/27 05:57:47;;;;;;;45.53;21.95;;;1.40;99.90;;;;;;5010618;28;20038;-64
2021/12/27 06:00:15;;;;;;;47.38;21.58;;;1.40;99.90;;;;;;5010412;28;20042;-64
2021/12/27 06:02:42;;;;;;;44.45;21.08;;;1.40;99.90;;;;;;5010095;28;20561;-63
2021/12/27 06:05:09;;;;;;;46.45;23.45;;;1.40;99.90;;;;;;5010387;28;20494;-63
2021/12/27 06:07:34;;;;;;;46.15;22.30;;;1.40;99.90;;;;;;5010318;28;20582;-63
2021/12/27 06:10:00;;;;;;;44.47;21.63;;;1.40;99.90;;;;;;5010010;28;20040;-63
2021/12/27 06:12:26;;;;;;;45.45;21.85;;;1.40;99.90;;;;;;5010296;28;20305;-63
2021/12/27 06:14:51;;;;;;;47.22;22.33;;;1.40;99.90;;;;;;5010491;28;20547;-63
2021/12/27 06:17:17;;;;;;;46.13;21.25;;;1.40;99.90;;;;;;5010360;28;20042;-63
2021/12/27 06:19:42;;;;;;;53.38;23.17;;;1.50;99.90;;;;;;5010021;28;20046;-63
2021/12/27 06:22:09;;;;;;;50.33;22.23;;;1.50;99.90;;;;;;5009884;28;20438;-64
2021/12/27 06:24:34;;;;;;;45.42;22.17;;;1.40;99.90;;;;;;5009948;28;20465;-63
2021/12/27 06:27:00;;;;;;;53.10;24.05;;;1.50;99.90;;;;;;5010032;28;20042;-64
2021/12/27 06:29:25;;;;;;;43.92;22.23;;;1.50;99.90;;;;;;5009901;28;20038;-63
2021/12/27 06:31:51;;;;;;;45.47;22.75;;;1.50;99.90;;;;;;5010312;28;20049;-63
2021/12/27 06:34:16;;;;;;;51.58;23.63;;;1.50;99.90;;;;;;5009769;28;20038;-64
2021/12/27 06:36:42;;;;;;;50.78;23.42;;;1.50;99.90;;;;;;5008597;28;20056;-63
2021/12/27 06:39:08;;;;;;;48.25;21.65;;;1.50;99.90;;;;;;5006995;28;20730;-64
2021/12/27 06:41:34;;;;;;;46.55;22.33;;;1.50;99.90;;;;;;5007492;28;20045;-63
2021/12/27 06:44:00;;;;;;;46.38;22.52;;;1.60;99.90;;;;;;5010789;28;20425;-63
2021/12/27 06:46:26;;;;;;;45.78;22.83;;;1.60;99.90;;;;;;5010781;28;20573;-63
2021/12/27 06:48:52;;;;;;;43.05;21.38;;;1.60;99.90;;;;;;5010430;28;20049;-64
2021/12/27 06:51:18;;;;;;;45.65;22.40;;;1.60;99.90;;;;;;5011019;28;20476;-63
2021/12/27 06:53:43;;;;;;;49.45;22.10;;;1.60;99.90;;;;;;5010655;28;20038;-62
2021/12/27 06:56:09;;;;;;;49.33;22.48;;;1.60;99.90;;;;;;5010393;28;20069;-64
2021/12/27 06:58:35;;;;;;;44.13;21.83;;;1.70;99.90;;;;;;5010354;28;20046;-64
2021/12/27 07:01:01;;;;;;;50.28;21.73;;;1.70;99.90;;;;;;5010378;28;20041;-64
2021/12/27 07:03:26;;;;;;;46.72;21.92;;;1.70;99.90;;;;;;5010287;28;20474;-63
2021/12/27 07:05:52;;;;;;;49.13;22.65;;;1.60;99.90;;;;;;5010384;28;20108;-64
2021/12/27 07:08:19;;;;;;;43.47;22.05;;;1.60;99.90;;;;;;5009907;28;20053;-63
2021/12/27 07:10:44;;;;;;;50.47;22.63;;;1.70;99.90;;;;;;5010493;28;20042;-63
2021/12/27 07:13:10;;;;;;;45.60;21.92;;;1.70;99.90;;;;;;5009805;28;20038;-63
2021/12/27 07:15:41;;;;;;;48.20;22.35;;;1.70;99.90;;;;;;5010121;28;20136;-64
2021/12/27 07:18:20;;;;;;;44.97;22.58;;;1.70;99.90;;;;;;5010667;28;20054;-63
2021/12/27 07:20:46;;;;;;;43.33;21.23;;;1.70;99.90;;;;;;5008721;28;20056;-63
2021/12/27 07:23:12;;;;;;;54.47;23.48;;;1.70;99.90;;;;;;5009660;28;20045;-64
2021/12/27 07:25:37;;;;;;;47.90;22.55;;;1.70;99.90;;;;;;5009434;28;20046;-63
2021/12/27 07:28:03;;;;;;;47.03;22.35;;;1.70;99.90;;;;;;5009254;28;20512;-63
2021/12/27 07:30:29;;;;;;;53.67;22.98;;;1.70;99.90;;;;;;5008126;28;20053;-64
2021/12/27 07:32:55;;;;;;;50.00;22.58;;;1.80;99.90;;;;;;5008925;28;20044;-63
2021/12/27 07:35:22;;;;;;;48.28;22.38;;;1.80;99.90;;;;;;5009036;28;20089;-63
2021/12/27 07:37:48;;;;;;;48.60;23.23;;;1.80;99.90;;;;;;5008754;28;20766;-64
2021/12/27 07:40:13;;;;;;;55.72;23.65;;;1.80;99.90;;;;;;5008084;28;20054;-62
2021/12/27 07:42:39;;;;;;;52.40;23.02;;;1.80;99.90;;;;;;5009348;28;20073;-63
2021/12/27 07:45:05;;;;;;;52.15;22.38;;;1.80;99.90;;;;;;5008421;28;20096;-64
2021/12/27 07:47:31;;;;;;;55.13;23.92;;;1.80;99.90;;;;;;5008162;28;20057;-63
2021/12/27 07:49:57;;;;;;;53.38;22.90;;;1.80;99.90;;;;;;5009197;28;20560;-62
2021/12/27 07:52:22;;;;;;;55.90;23.15;;;1.80;99.90;;;;;;5009642;28;20644;-63
2021/12/27 07:54:48;;;;;;;55.35;22.67;;;1.80;99.90;;;;;;5011454;28;20088;-63
2021/12/27 07:57:13;;;;;;;58.80;24.35;;;1.80;99.90;;;;;;5012538;28;20441;-63
2021/12/27 07:59:39;;;;;;;61.20;23.38;;;1.90;99.90;;;;;;5021139;28;20515;-63
2021/12/27 08:02:05;;;;;;;57.88;23.33;;;1.90;99.90;;;;;;5031643;28;20038;-63
2021/12/27 08:04:31;;;;;;;55.60;23.83;;;1.90;99.90;;;;;;5030982;28;20030;-62
2021/12/27 08:06:56;;;;;;;60.13;23.98;;;1.90;99.90;;;;;;5031404;28;20482;-62
2021/12/27 08:09:25;;;;;;;62.58;24.00;;;1.90;99.90;;;;;;5031244;28;20045;-62
2021/12/27 08:11:50;;;;;;;62.90;23.83;;;1.90;99.90;;;;;;5031516;28;20116;-62
2021/12/27 08:14:16;;;;;;;65.68;24.63;;;1.90;99.90;;;;;;5029634;28;20121;-62
2021/12/27 08:16:41;;;;;;;61.88;25.00;;;1.90;99.90;;;;;;5031105;28;20409;-63
2021/12/27 08:19:07;;;;;;;65.80;24.80;;;1.90;99.90;;;;;;5029527;28;20417;-63
2021/12/27 08:21:33;;;;;;;61.80;23.85;;;1.90;99.90;;;;;;5031267;28;20044;-62
2021/12/27 08:23:59;;;;;;;63.47;24.35;;;1.90;99.90;;;;;;5030993;28;20041;-63
2021/12/27 08:26:25;;;;;;;65.80;24.80;;;1.90;99.90;;;;;;5029916;28;20053;-63
2021/12/27 08:28:52;;;;;;;63.95;24.25;;;1.90;99.90;;;;;;5030541;28;20045;-63
2021/12/27 08:31:18;;;;;;;66.10;23.38;;;2.00;99.90;;;;;;5030069;28;20168;-63
2021/12/27 08:33:43;;;;;;;65.15;23.77;;;2.00;99.90;;;;;;5029018;28;20132;-63
2021/12/27 08:36:09;;;;;;;66.10;24.48;;;2.00;99.90;;;;;;5029140;28;20736;-62
2021/12/27 08:38:34;;;;;;;71.10;24.65;;;2.10;99.90;;;;;;5028866;28;20041;-63
2021/12/27 08:41:00;;;;;;;66.07;24.02;;;2.10;99.90;;;;;;5029125;28;20033;-64
2021/12/27 08:43:26;;;;;;;67.85;24.23;;;2.10;99.90;;;;;;5029242;28;20041;-62
2021/12/27 08:45:52;;;;;;;62.00;24.23;;;2.20;99.90;;;;;;5029163;28;20045;-62
2021/12/27 08:48:18;;;;;;;64.32;24.63;;;2.20;99.90;;;;;;5030512;28;20041;-62
2021/12/27 08:50:44;;;;;;;70.35;25.38;;;2.20;99.90;;;;;;5030629;28;20083;-62
2021/12/27 08:53:10;;;;;;;64.30;24.42;;;2.20;99.90;;;;;;5030544;28;20448;-62
2021/12/27 08:55:37;;;;;;;67.22;24.88;;;2.20;99.90;;;;;;5030530;28;20037;-62
2021/12/27 08:58:04;;;;;;;71.55;24.98;;;2.30;99.90;;;;;;5030081;28;20103;-63
2021/12/27 09:00:29;;;;;;;62.50;23.63;;;2.30;99.90;;;;;;5030242;28;20173;-63
2021/12/27 09:02:56;;;;;;;74.95;25.67;;;2.30;99.90;;;;;;5029047;28;20049;-62
2021/12/27 09:05:22;;;;;;;75.63;25.42;;;2.30;99.90;;;;;;5029981;28;20548;-62
2021/12/27 09:07:47;;;;;;;75.53;25.40;;;2.30;99.90;;;;;;5030145;28;20164;-63
2021/12/27 09:10:13;;;;;;;78.32;25.73;;;2.30;99.90;;;;;;5030059;28;20524;-63
2021/12/27 09:12:40;;;;;;;88.97;26.42;;;2.30;99.90;;;;;;5029829;28;20029;-62
2021/12/27 09:15:06;;;;;;;87.47;25.42;;;2.40;99.90;;;;;;5029936;28;20058;-63
2021/12/27 09:17:32;;;;;;;91.32;25.80;;;2.40;99.90;;;;;;5029998;28;20144;-62
2021/12/27 09:19:58;;;;;;;83.32;26.00;;;2.40;99.90;;;;;;5028478;28;20037;-62
2021/12/27 09:22:23;;;;;;;78.68;23.88;;;2.40;99.90;;;;;;5028500;28;20041;-63
2021/12/27 09:24:50;;;;;;;83.38;24.80;;;2.40;99.90;;;;;;5029803;28;20029;-63
2021/12/27 09:27:16;;;;;;;83.75;27.40;;;2.50;99.90;;;;;;5029625;28;20060;-63
2021/12/27 09:29:43;;;;;;;81.03;24.65;;;2.50;99.90;;;;;;5029532;28;20042;-63
2021/12/27 09:32:09;;;;;;;86.55;25.33;;;2.50;99.90;;;;;;5029711;28;20489;-62
2021/12/27 09:34:36;;;;;;;86.72;27.23;;;2.50;99.90;;;;;;5028359;28;20117;-63
2021/12/27 09:37:02;;;;;;;90.45;28.00;;;2.60;99.90;;;;;;5028566;28;20041;-63
2021/12/27 09:39:27;;;;;;;88.85;26.42;;;2.60;99.90;;;;;;5029449;28;20103;-63
2021/12/27 09:41:53;;;;;;;93.35;27.00;;;2.70;99.90;;;;;;5029638;28;20038;-62
2021/12/27 09:44:19;;;;;;;102.85;28.30;;;2.70;99.90;;;;;;5029526;28;20049;-62
2021/12/27 09:46:44;;;;;;;88.72;26.77;;;2.70;99.90;;;;;;5028233;28;20048;-63
2021/12/27 09:49:13;;;;;;;89.22;25.95;;;2.70;99.90;;;;;;5028888;28;20034;-62
2021/12/27 09:51:40;;;;;;;99.10;27.17;;;2.70;99.90;;;;;;5028118;28;20072;-63
2021/12/27 09:54:07;;;;;;;104.60;29.15;;;2.70;99.90;;;;;;5026330;28;20758;-63
2021/12/27 09:56:33;;;;;;;86.95;27.00;;;2.70;99.90;;;;;;5027849;28;20163;-63
2021/12/27 09:58:58;;;;;;;101.80;28.70;;;2.70;99.90;;;;;;5027720;28;20128;-64
2021/12/27 10:01:24;;;;;;;89.78;26.27;;;2.80;99.90;;;;;;5026951;28;20041;-65
2021/12/27 10:03:55;;;;;;;100.13;27.08;;;2.80;99.90;;;;;;5028369;28;20056;-63
2021/12/27 10:06:23;;;;;;;105.55;27.17;;;2.80;99.90;;;;;;5029811;28;20049;-62
2021/12/27 10:08:52;;;;;;;92.95;27.05;;;2.80;99.90;;;;;;5029379;28;20045;-64
2021/12/27 10:11:30;;;;;;;106.75;26.58;;;2.90;99.90;;;;;;5027256;28;20046;-64
2021/12/27 10:14:09;;;;;;;105.18;26.60;;;2.90;99.90;;;;;;5028272;28;20052;-64
2021/12/27 10:16:38;;;;;;;99.15;25.80;;;2.90;99.90;;;;;;5031662;28;20049;-64
2021/12/27 10:19:07;;;;;;;105.45;26.65;;;2.90;99.90;;;;;;5031959;28;20052;-63
2021/12/27 10:21:34;;;;;;;90.30;26.55;;;3.00;99.90;;;;;;5033195;28;20045;-64
2021/12/27 10:24:14;;;;;;;121.80;28.60;;;3.00;99.90;;;;;;5032872;28;20045;-64
2021/12/27 10:26:42;;;;;;;107.13;27.63;;;3.10;99.90;;;;;;5032189;28;20493;-64
2021/12/27 10:29:14;;;;;;;107.28;28.98;;;3.20;99.90;;;;;;5031553;28;20050;-63
2021/12/27 10:31:58;;;;;;;110.75;27.30;;;3.30;99.90;;;;;;5033265;28;20037;-64
2021/12/27 10:34:29;;;;;;;98.05;26.52;;;3.20;99.90;;;;;;5031470;28;20044;-63
2021/12/27 10:37:02;;;;;;;100.15;26.23;;;3.20;99.90;;;;;;5033392;28;20037;-62
2021/12/27 10:39:50;;;;;;;104.80;26.30;;;3.20;99.90;;;;;;5032964;28;20133;-62
2021/12/27 10:42:45;;;;;;;98.22;27.02;;;3.30;99.90;;;;;;5031642;28;20046;-62
2021/12/27 10:45:14;;;;;;;91.75;26.80;;;3.30;99.90;;;;;;5030104;28;20103;-62
2021/12/27 10:47:48;;;;;;;96.35;24.90;;;3.30;99.90;;;;;;5032972;28;20045;-62
2021/12/27 10:50:28;;;;;;;110.07;27.20;;;3.30;99.90;;;;;;5032852;28;20040;-62
2021/12/27 10:53:04;;;;;;;108.93;28.38;;;3.30;99.90;;;;;;5032496;28;20108;-61
2021/12/27 10:55:46;;;;;;;99.43;25.60;;;3.40;99.90;;;;;;5032989;28;20037;-62
2021/12/27 10:58:19;;;;;;;98.95;26.08;;;3.40;99.90;;;;;;5032713;28;20037;-63
2021/12/27 11:00:47;;;;;;;99.18;26.20;;;3.40;99.90;;;;;;5032728;28;20112;-62
2021/12/27 11:03:43;;;;;;;100.32;27.35;;;3.40;99.90;;;;;;5032120;28;20045;-61
2021/12/27 11:06:12;;;;;;;103.40;27.42;;;3.50;99.90;;;;;;5014961;28;20429;-62
2021/12/27 11:08:39;;;;;;;114.25;26.83;;;3.40;99.90;;;;;;5032549;28;20077;-63
2021/12/27 11:11:05;;;;;;;84.55;25.80;;;3.40;99.90;;;;;;5032477;28;20033;-61
2021/12/27 11:13:32;;;;;;;93.72;26.52;;;3.40;99.90;;;;;;5032117;28;20038;-62
2021/12/27 11:15:58;;;;;;;96.43;26.98;;;3.40;99.90;;;;;;5029758;28;20041;-61
2021/12/27 11:18:24;;;;;;;96.07;26.35;;;3.40;99.90;;;;;;5029531;28;20099;-62
2021/12/27 11:20:59;;;;;;;93.32;25.90;;;3.40;99.90;;;;;;5029429;28;20528;-62
2021/12/27 11:23:26;;;;;;;101.97;27.45;;;3.40;99.90;;;;;;5028594;28;20033;-63
2021/12/27 11:26:00;;;;;;;118.93;27.75;;;3.40;99.90;;;;;;5028929;28;20583;-62
2021/12/27 11:28:36;;;;;;;110.68;27.60;;;3.40;99.90;;;;;;5027905;28;20084;-62
2021/12/27 11:31:15;;;;;;;111.32;27.02;;;3.40;99.90;;;;;;5028113;28;20095;-63
2021/12/27 11:33:55;;;;;;;94.05;26.73;;;3.40;99.90;;;;;;5029556;28;20444;-63
2021/12/27 11:36:23;;;;;;;115.57;27.67;;;3.50;99.90;;;;;;5029541;28;20037;-62
2021/12/27 11:38:49;;;;;;;104.53;26.83;;;3.60;99.90;;;;;;5028995;28;20049;-62
2021/12/27 11:41:24;;;;;;;105.60;27.65;;;3.50;99.90;;;;;;5029069;28;20045;-62
2021/12/27 11:43:55;;;;;;;99.00;26.52;;;3.60;99.90;;;;;;5029063;28;20112;-62
2021/12/27 11:46:22;;;;;;;;;;;3.50;99.90;;;;;;5030099;28;20047;-62
2021/12/27 11:48:54;;;;;;;100.43;25.27;;;3.60;99.90;;;;;;5028851;28;19960;-62
2021/12/27 11:51:34;;;;;;;93.38;25.55;;;3.60;99.90;;;;;;5027996;28;20033;-63
2021/12/27 11:54:02;;;;;;;104.70;26.65;;;3.70;99.90;;;;;;5028847;28;20034;-63
2021/12/27 11:56:37;;;;;;;103.60;26.17;;;3.70;99.90;;;;;;5028851;28;20487;-62
2021/12/27 11:59:22;;;;;;;85.38;26.13;;;3.70;99.90;;;;;;5028749;28;20045;-63
2021/12/27 12:01:58;;;;;;;87.75;27.00;;;3.80;99.90;;;;;;5028871;28;20052;-62
2021/12/27 12:04:42;;;;;;;83.60;25.88;;;3.90;99.90;;;;;;5028622;28;20029;-62
2021/12/27 12:07:09;;;;;;;85.43;25.88;;;4.00;99.90;;;;;;5028849;28;20670;-62
2021/12/27 12:09:46;;;;;;;81.78;25.50;;;4.00;99.90;;;;;;5023578;28;20045;-63
2021/12/27 12:12:13;;;;;;;84.88;26.50;;;4.10;99.90;;;;;;5018443;28;20042;-63
2021/12/27 12:14:40;;;;;;;87.32;27.10;;;4.10;99.90;;;;;;5015600;28;20076;-62
2021/12/27 12:17:14;;;;;;;81.38;24.90;;;4.30;99.90;;;;;;5019533;28;20033;-64
2021/12/27 12:19:46;;;;;;;79.68;25.85;;;4.30;99.90;;;;;;5018524;28;20116;-64
2021/12/27 12:22:42;;;;;;;68.50;25.00;;;4.40;99.90;;;;;;5011471;28;20053;-64
2021/12/27 12:25:21;;;;;;;69.10;24.88;;;4.40;99.90;;;;;;5011252;28;20126;-63
2021/12/27 12:27:50;;;;;;;59.38;24.15;;;4.40;99.90;;;;;;5015486;28;20126;-63
2021/12/27 12:30:15;;;;;;;58.92;21.98;;;4.40;99.90;;;;;;5018903;28;20025;-63
2021/12/27 12:32:58;;;;;;;61.67;23.05;;;4.50;99.90;;;;;;5016243;28;20617;-63
2021/12/27 12:35:43;;;;;;;58.47;22.40;;;4.60;99.90;;;;;;5021913;28;20049;-64
2021/12/27 12:38:30;;;;;;;50.50;20.65;;;4.70;99.90;;;;;;5012921;28;20578;-63
2021/12/27 12:41:10;;;;;;;54.47;21.60;;;4.80;99.90;;;;;;5019080;28;20041;-63
2021/12/27 12:43:57;;;;;;;45.78;20.15;;;4.90;99.90;;;;;;5016739;28;20497;-63